Air Sicilia Virtual Airways - Route

Air Sicilia Virtual Airways - SIC023C

( IT ) LICJ - 07:15
Falcone–Borsellino Airport
PALERMO ( PMO )
plane_to ( BE ) EBBR - 09:52
Brussels Airport
BRUSSELS ( BRU )

AIRPORT NEAR NAVIGATION AIDS

Type Name Frequency
VOR-DME Palermo 112300 KHZ
NDB Palermo 356 KHZ
VOR-DME Raisi 113000 KHZ
NDB Raisi 329 KHZ

METAR / TAF
LICJ 181520Z 03007KT 9999 FEW025TCU 28/21 Q1015
LICJ 181100Z 1812/1912 03012KT 9999 SCT030 BECMG 1817/1819 VRB05KT BECMG 1908/1910 04012KT TEMPO 1909/1912 TSRA

RUNWAY INFORMATION

Runway Runway length Runway width Runway elevation Runway displaced threshold Runway heading
02 6804 148 42 10 24
20 6804 148 22 10 204
07 10912 197 33 404 66.9
25 10912 197 50 679 246.9

AIRPORT FREQUENCIES

Type Name Frequency
APP APP 120.2 MHZ
GND RAISI GND 121.625 MHZ
TWR RAISI TWR 119.05 MHZ

AIRPORT NEAR NAVIGATION AIDS

Type Name Frequency
VOR-DME Affligem 114900 KHZ
VOR-DME Brussels 114600 KHZ
VOR-DME Bruno 110600 KHZ
NDB Brussels 293 KHZ
NDB Brussels 314 KHZ

METAR / TAF
EBBR 181520Z 24007KT 200V270 9999 FEW037 BKN042 21/14 Q1022 NOSIG
EBBR 181100Z 1812/1918 22006KT 9999 FEW020 SCT035= EDDF 181100Z 1812/1918 33006KT CAVOK BECMG 1820/1822 04004KT BECMG 1908/1910 24007KT

RUNWAY INFORMATION

Runway Runway length Runway width Runway elevation Runway displaced threshold Runway heading
01 9800 164 183 151 14
19 9800 164 113 571 194
07L 11936 148 129 846 65
25R 11936 148 110 984 245
07R 10535 148 175 400 70
25L 10535 148 159 0 250

AIRPORT FREQUENCIES

Type Name Frequency
APP APP 118.25 MHZ
ATIS ATIS DEP 121.75 MHZ
ATIS ATIS ARR 132.475 MHZ
CLD CLNC DEL 121.95 MHZ
DEP DEP 126.625 MHZ
GND GND North 118.05 MHZ
GND GND South 121.875 MHZ
OPS MELSBROEK 140.575 MHZ
TWR TWR (RWY 0 118.6 MHZ
TWR TWR (RWY 0 120.775 MHZ
UNIC ABELAG UNI 130.55 MHZ

Flightplan

GIANO L12 ELB M729 BETEN M621 AOSTA UM729 MOLUS UN853 IXILU UL47 EPL UM624 DIK UN852 LNO

Air Sicilia Virtual Airways Fleets

AVAILABLE AIRCRAFTS for route at this time in Falcone–Borsellino Airport
A320 - Airbus A320
( UE ) AIRBUS

Aircraft in fleet: 3

B738 - Boeing 737-800 NGX
( US ) BOEING

Aircraft in fleet: 2

DH8D - Dash 8 Q400
( CA ) BOMABRDIER

Aircraft in fleet: 1

847.77 NM

Distance in nautical miles.

€ 200,00

Ticket price for this flight.

2.26 h.

Estimated flight time.



07-08-2018
Aerosoft Professional Flight Planner PFPX

PFPX - Professional Flight Planner X - è un nuovo ed innovativo strumento di pianificazione del volo sviluppato da piloti e dispatcher del mondo reale. È un'aggiunta preziosa e realistica alla tua esperienza di simulaz ....


19-07-2018
Aerosoft Oslo X

L'Aeroporto di Oslo-Gardermoen (IATA: OSL, ICAO: ENGM) è il principale aeroporto norvegese e il 19° in Europa, è situato vicino alla cittadina di Ullensaker nella contea di Akershus e serve la capitale Oslo. Ha sostit ....


21-06-2018
Aerosoft Malpensa Professional P3Dv4

L'Aeroporto di Milano-Malpensa (IATA: MXP, ICAO: LIMC) è un aeroporto italiano situato nella provincia di Varese in Lombardia, ma considerato come il principale aeroporto di Milano.

È il secondo aeroporto ital ....


06-06-2018
1° Raduno Air Sicilia Virtual - parla il C.E.O.

Grande successo per il 1° Raduno di Compagnia dell'Air Sicilia Virtual, che ha visto i membri della Crew presenti il 4 giugno 2018 a Thiene ( VI ) , cimentarsi dal vivo con le reali ....


24-05-2018
Aerosoft Airport Rome XP

Tra le nostre recensioni non poteva mancare certo la nuova uscita Aerosoft per X-Plane, stiamo parlando di Airport Rome XP, finalmente un Add-on pay completo dell'Aeroporto di Roma Fiumicino per gli utilizzatori del simu ....